Vancouver, Canada
Current Conditions -  °F | °C
As of 2:00 PM on Monday 20 Oct 2014 (Local Time) from CYVR Reporting Station
Scattered Clouds Scattered Clouds  
Wind Chill: 61°   Ceiling: Unl
Heat Index: 61°   Visibility: 15mi
Dew Point: 54°   Wind: 12mph
Humidity: 77%   Direction: 120°ESE
Pressure: 29.72"   Gusts: NA
Location:  49.26°N, 123.11°W
Report Text: CYVR 202100Z 12010KT 15SM FEW015 FEW030TCU SCT110 16/12 A2972 RMK CF1TCU1AC2 SLP063 DENSITY ALT 300FT
Loading
Personal Weather Stations






























Interactive Weather Map New forecast layout! Learn more

10-Day Weather Forecast

Advertisements
Track Severe Weather on mobile